sensor_id;sensor_type;location;lat;lon;timestamp;temperature;humidity
59007;DHT22;44792;52.760;6.726;2022-10-10T00:02:11;8.40;99.90
59007;DHT22;44792;52.760;6.726;2022-10-10T00:04:36;8.50;99.90
59007;DHT22;44792;52.760;6.726;2022-10-10T00:07:03;8.40;99.90
59007;DHT22;44792;52.760;6.726;2022-10-10T00:09:29;8.40;99.90
59007;DHT22;44792;52.760;6.726;2022-10-10T00:11:54;8.50;99.90
59007;DHT22;44792;52.760;6.726;2022-10-10T00:14:20;8.50;99.90
59007;DHT22;44792;52.760;6.726;2022-10-10T00:16:45;8.40;99.90
59007;DHT22;44792;52.760;6.726;2022-10-10T00:19:11;8.40;99.90
59007;DHT22;44792;52.760;6.726;2022-10-10T00:21:37;8.40;99.90
59007;DHT22;44792;52.760;6.726;2022-10-10T00:24:02;8.40;99.90
59007;DHT22;44792;52.760;6.726;2022-10-10T00:26:28;8.40;99.90
59007;DHT22;44792;52.760;6.726;2022-10-10T00:28:54;8.30;99.90
59007;DHT22;44792;52.760;6.726;2022-10-10T00:31:20;8.40;99.90
59007;DHT22;44792;52.760;6.726;2022-10-10T00:33:46;8.30;99.90
59007;DHT22;44792;52.760;6.726;2022-10-10T00:36:12;8.40;99.90
59007;DHT22;44792;52.760;6.726;2022-10-10T00:38:38;8.40;99.90
59007;DHT22;44792;52.760;6.726;2022-10-10T00:41:03;8.30;99.90
59007;DHT22;44792;52.760;6.726;2022-10-10T00:43:30;8.30;99.90
59007;DHT22;44792;52.760;6.726;2022-10-10T00:45:56;8.30;99.90
59007;DHT22;44792;52.760;6.726;2022-10-10T00:48:24;8.30;99.90
59007;DHT22;44792;52.760;6.726;2022-10-10T00:56:02;8.20;99.90
59007;DHT22;44792;52.760;6.726;2022-10-10T00:58:28;8.20;99.90
59007;DHT22;44792;52.760;6.726;2022-10-10T01:00:54;8.20;99.90
59007;DHT22;44792;52.760;6.726;2022-10-10T01:03:20;8.10;99.90
59007;DHT22;44792;52.760;6.726;2022-10-10T01:05:47;8.10;99.90
59007;DHT22;44792;52.760;6.726;2022-10-10T01:08:15;8.10;99.90
59007;DHT22;44792;52.760;6.726;2022-10-10T01:13:37;8.00;99.90
59007;DHT22;44792;52.760;6.726;2022-10-10T01:16:12;8.10;99.90
59007;DHT22;44792;52.760;6.726;2022-10-10T01:19:46;8.00;99.90
59007;DHT22;44792;52.760;6.726;2022-10-10T01:29:28;8.00;99.90
59007;DHT22;44792;52.760;6.726;2022-10-10T01:31:57;8.00;99.90
59007;DHT22;44792;52.760;6.726;2022-10-10T01:34:49;8.00;99.90
59007;DHT22;44792;52.760;6.726;2022-10-10T01:37:36;8.00;99.90
59007;DHT22;44792;52.760;6.726;2022-10-10T01:40:19;7.90;99.90
59007;DHT22;44792;52.760;6.726;2022-10-10T01:42:53;7.90;99.90
59007;DHT22;44792;52.760;6.726;2022-10-10T01:45:19;7.90;99.90
59007;DHT22;44792;52.760;6.726;2022-10-10T01:47:45;8.00;99.90
59007;DHT22;44792;52.760;6.726;2022-10-10T01:50:14;7.90;99.90
59007;DHT22;44792;52.760;6.726;2022-10-10T01:55:30;7.90;99.90
59007;DHT22;44792;52.760;6.726;2022-10-10T01:58:15;7.90;99.90
59007;DHT22;44792;52.760;6.726;2022-10-10T02:03:56;7.90;99.90
59007;DHT22;44792;52.760;6.726;2022-10-10T02:06:33;7.90;99.90
59007;DHT22;44792;52.760;6.726;2022-10-10T02:09:05;7.80;99.90
59007;DHT22;44792;52.760;6.726;2022-10-10T02:11:34;7.80;99.90
59007;DHT22;44792;52.760;6.726;2022-10-10T02:14:21;7.80;99.90
59007;DHT22;44792;52.760;6.726;2022-10-10T02:16:50;7.80;99.90
59007;DHT22;44792;52.760;6.726;2022-10-10T02:19:18;7.70;99.90
59007;DHT22;44792;52.760;6.726;2022-10-10T02:21:46;7.80;99.90
59007;DHT22;44792;52.760;6.726;2022-10-10T02:24:12;7.70;99.90
59007;DHT22;44792;52.760;6.726;2022-10-10T02:26:40;7.70;99.90
59007;DHT22;44792;52.760;6.726;2022-10-10T02:29:18;7.80;99.90
59007;DHT22;44792;52.760;6.726;2022-10-10T02:32:11;7.80;99.90
59007;DHT22;44792;52.760;6.726;2022-10-10T02:34:42;7.80;99.90
59007;DHT22;44792;52.760;6.726;2022-10-10T02:37:11;7.80;99.90
59007;DHT22;44792;52.760;6.726;2022-10-10T02:39:42;7.80;99.90
59007;DHT22;44792;52.760;6.726;2022-10-10T02:42:09;7.80;99.90
59007;DHT22;44792;52.760;6.726;2022-10-10T02:44:38;7.80;99.90
59007;DHT22;44792;52.760;6.726;2022-10-10T02:47:03;7.80;99.90
59007;DHT22;44792;52.760;6.726;2022-10-10T02:49:31;7.80;99.90
59007;DHT22;44792;52.760;6.726;2022-10-10T02:51:57;7.70;99.90
59007;DHT22;44792;52.760;6.726;2022-10-10T02:54:23;7.80;99.90
59007;DHT22;44792;52.760;6.726;2022-10-10T02:56:49;7.80;99.90
59007;DHT22;44792;52.760;6.726;2022-10-10T02:59:15;7.90;99.90
59007;DHT22;44792;52.760;6.726;2022-10-10T03:01:40;7.70;99.90
59007;DHT22;44792;52.760;6.726;2022-10-10T03:04:06;7.80;99.90
59007;DHT22;44792;52.760;6.726;2022-10-10T03:06:31;7.80;99.90
59007;DHT22;44792;52.760;6.726;2022-10-10T03:08:57;7.70;99.90
59007;DHT22;44792;52.760;6.726;2022-10-10T03:11:22;7.80;99.90
59007;DHT22;44792;52.760;6.726;2022-10-10T03:13:48;7.80;99.90
59007;DHT22;44792;52.760;6.726;2022-10-10T03:16:13;7.80;99.90
59007;DHT22;44792;52.760;6.726;2022-10-10T03:18:39;7.80;99.90
59007;DHT22;44792;52.760;6.726;2022-10-10T03:21:05;7.80;99.90
59007;DHT22;44792;52.760;6.726;2022-10-10T03:23:31;7.80;99.90
59007;DHT22;44792;52.760;6.726;2022-10-10T03:25:56;7.80;99.90
59007;DHT22;44792;52.760;6.726;2022-10-10T03:28:22;7.80;99.90
59007;DHT22;44792;52.760;6.726;2022-10-10T03:30:47;7.80;99.90
59007;DHT22;44792;52.760;6.726;2022-10-10T03:33:13;7.80;99.90
59007;DHT22;44792;52.760;6.726;2022-10-10T03:35:39;7.80;99.90
59007;DHT22;44792;52.760;6.726;2022-10-10T03:38:05;7.80;99.90
59007;DHT22;44792;52.760;6.726;2022-10-10T03:40:31;7.80;99.90
59007;DHT22;44792;52.760;6.726;2022-10-10T03:42:57;7.80;99.90
59007;DHT22;44792;52.760;6.726;2022-10-10T03:45:23;7.70;99.90
59007;DHT22;44792;52.760;6.726;2022-10-10T03:47:49;7.70;99.90
59007;DHT22;44792;52.760;6.726;2022-10-10T03:50:15;7.70;99.90
59007;DHT22;44792;52.760;6.726;2022-10-10T03:52:40;7.80;99.90
59007;DHT22;44792;52.760;6.726;2022-10-10T03:55:06;7.70;99.90
59007;DHT22;44792;52.760;6.726;2022-10-10T03:57:32;7.70;99.90
59007;DHT22;44792;52.760;6.726;2022-10-10T03:59:57;7.70;99.90
59007;DHT22;44792;52.760;6.726;2022-10-10T04:02:23;7.70;99.90
59007;DHT22;44792;52.760;6.726;2022-10-10T04:04:48;7.70;99.90
59007;DHT22;44792;52.760;6.726;2022-10-10T04:07:14;7.70;99.90
59007;DHT22;44792;52.760;6.726;2022-10-10T04:09:39;7.70;99.90
59007;DHT22;44792;52.760;6.726;2022-10-10T04:12:05;7.80;99.90
59007;DHT22;44792;52.760;6.726;2022-10-10T04:14:30;7.70;99.90
59007;DHT22;44792;52.760;6.726;2022-10-10T04:16:56;7.70;99.90
59007;DHT22;44792;52.760;6.726;2022-10-10T04:19:21;7.70;99.90
59007;DHT22;44792;52.760;6.726;2022-10-10T04:21:47;7.70;99.90
59007;DHT22;44792;52.760;6.726;2022-10-10T04:24:13;7.70;99.90
59007;DHT22;44792;52.760;6.726;2022-10-10T04:26:38;7.70;99.90
59007;DHT22;44792;52.760;6.726;2022-10-10T04:29:04;7.70;99.90
59007;DHT22;44792;52.760;6.726;2022-10-10T04:31:29;7.70;99.90
59007;DHT22;44792;52.760;6.726;2022-10-10T04:33:55;7.70;99.90
59007;DHT22;44792;52.760;6.726;2022-10-10T04:36:20;7.70;99.90
59007;DHT22;44792;52.760;6.726;2022-10-10T04:38:46;7.70;99.90
59007;DHT22;44792;52.760;6.726;2022-10-10T04:41:11;7.60;99.90
59007;DHT22;44792;52.760;6.726;2022-10-10T04:43:37;7.60;99.90
59007;DHT22;44792;52.760;6.726;2022-10-10T04:46:02;7.60;99.90
59007;DHT22;44792;52.760;6.726;2022-10-10T04:48:28;7.60;99.90
59007;DHT22;44792;52.760;6.726;2022-10-10T04:50:57;7.50;99.90
59007;DHT22;44792;52.760;6.726;2022-10-10T04:53:24;7.50;99.90
59007;DHT22;44792;52.760;6.726;2022-10-10T04:55:49;7.40;99.90
59007;DHT22;44792;52.760;6.726;2022-10-10T04:58:15;7.40;99.90
59007;DHT22;44792;52.760;6.726;2022-10-10T05:00:41;7.40;99.90
59007;DHT22;44792;52.760;6.726;2022-10-10T05:03:07;7.40;99.90
59007;DHT22;44792;52.760;6.726;2022-10-10T05:05:35;7.40;99.90
59007;DHT22;44792;52.760;6.726;2022-10-10T05:08:01;7.40;99.90
59007;DHT22;44792;52.760;6.726;2022-10-10T05:10:26;7.30;99.90
59007;DHT22;44792;52.760;6.726;2022-10-10T05:12:52;7.30;99.90
59007;DHT22;44792;52.760;6.726;2022-10-10T05:15:18;7.40;99.90
59007;DHT22;44792;52.760;6.726;2022-10-10T05:17:45;7.40;99.90
59007;DHT22;44792;52.760;6.726;2022-10-10T05:20:11;7.30;99.90
59007;DHT22;44792;52.760;6.726;2022-10-10T05:22:37;7.40;99.90
59007;DHT22;44792;52.760;6.726;2022-10-10T05:25:02;7.40;99.90
59007;DHT22;44792;52.760;6.726;2022-10-10T05:27:28;7.40;99.90
59007;DHT22;44792;52.760;6.726;2022-10-10T05:29:54;7.30;99.90
59007;DHT22;44792;52.760;6.726;2022-10-10T05:32:21;7.40;99.90
59007;DHT22;44792;52.760;6.726;2022-10-10T05:34:46;7.40;99.90
59007;DHT22;44792;52.760;6.726;2022-10-10T05:37:13;7.40;99.90
59007;DHT22;44792;52.760;6.726;2022-10-10T05:39:38;7.40;99.90
59007;DHT22;44792;52.760;6.726;2022-10-10T05:42:04;7.50;99.90
59007;DHT22;44792;52.760;6.726;2022-10-10T05:44:30;7.40;99.90
59007;DHT22;44792;52.760;6.726;2022-10-10T05:46:56;7.40;99.90
59007;DHT22;44792;52.760;6.726;2022-10-10T05:49:22;7.40;99.90
59007;DHT22;44792;52.760;6.726;2022-10-10T05:51:48;7.40;99.90
59007;DHT22;44792;52.760;6.726;2022-10-10T05:54:13;7.40;99.90
59007;DHT22;44792;52.760;6.726;2022-10-10T05:56:39;7.40;99.90
59007;DHT22;44792;52.760;6.726;2022-10-10T05:59:04;7.30;99.90
59007;DHT22;44792;52.760;6.726;2022-10-10T06:01:30;7.40;99.90
59007;DHT22;44792;52.760;6.726;2022-10-10T06:03:56;7.30;99.90
59007;DHT22;44792;52.760;6.726;2022-10-10T06:06:22;7.30;99.90
59007;DHT22;44792;52.760;6.726;2022-10-10T06:08:48;7.30;99.90
59007;DHT22;44792;52.760;6.726;2022-10-10T06:11:14;7.20;99.90
59007;DHT22;44792;52.760;6.726;2022-10-10T06:13:42;7.30;99.90
59007;DHT22;44792;52.760;6.726;2022-10-10T06:16:08;7.30;99.90
59007;DHT22;44792;52.760;6.726;2022-10-10T06:18:33;7.30;99.90
59007;DHT22;44792;52.760;6.726;2022-10-10T06:21:04;7.30;99.90
59007;DHT22;44792;52.760;6.726;2022-10-10T06:23:30;7.30;99.90
59007;DHT22;44792;52.760;6.726;2022-10-10T06:25:56;7.30;99.90
59007;DHT22;44792;52.760;6.726;2022-10-10T06:28:21;7.30;99.90
59007;DHT22;44792;52.760;6.726;2022-10-10T06:30:47;7.30;99.90
59007;DHT22;44792;52.760;6.726;2022-10-10T06:33:14;7.40;99.90
59007;DHT22;44792;52.760;6.726;2022-10-10T06:35:46;7.50;99.90
59007;DHT22;44792;52.760;6.726;2022-10-10T06:38:14;7.50;99.90
59007;DHT22;44792;52.760;6.726;2022-10-10T06:40:40;7.60;99.90
59007;DHT22;44792;52.760;6.726;2022-10-10T06:43:07;7.70;99.90
59007;DHT22;44792;52.760;6.726;2022-10-10T06:45:45;7.80;99.90
59007;DHT22;44792;52.760;6.726;2022-10-10T06:48:12;7.90;99.90
59007;DHT22;44792;52.760;6.726;2022-10-10T06:50:38;8.00;99.90
59007;DHT22;44792;52.760;6.726;2022-10-10T06:53:04;8.00;99.90
59007;DHT22;44792;52.760;6.726;2022-10-10T06:55:29;8.00;99.90
59007;DHT22;44792;52.760;6.726;2022-10-10T06:57:55;8.20;99.90
59007;DHT22;44792;52.760;6.726;2022-10-10T07:00:21;8.20;99.90
59007;DHT22;44792;52.760;6.726;2022-10-10T07:02:46;8.30;99.90
59007;DHT22;44792;52.760;6.726;2022-10-10T07:05:14;8.40;99.90
59007;DHT22;44792;52.760;6.726;2022-10-10T07:07:44;8.40;99.90
59007;DHT22;44792;52.760;6.726;2022-10-10T07:10:12;8.50;99.90
59007;DHT22;44792;52.760;6.726;2022-10-10T07:12:38;8.60;99.90
59007;DHT22;44792;52.760;6.726;2022-10-10T07:15:05;8.60;99.90
59007;DHT22;44792;52.760;6.726;2022-10-10T07:17:30;8.70;99.90
59007;DHT22;44792;52.760;6.726;2022-10-10T07:19:56;8.80;99.90
59007;DHT22;44792;52.760;6.726;2022-10-10T07:22:22;8.80;99.90
59007;DHT22;44792;52.760;6.726;2022-10-10T07:24:48;8.80;99.90
59007;DHT22;44792;52.760;6.726;2022-10-10T07:27:13;8.90;99.90
59007;DHT22;44792;52.760;6.726;2022-10-10T07:29:39;9.00;99.90
59007;DHT22;44792;52.760;6.726;2022-10-10T07:32:05;9.10;99.90
59007;DHT22;44792;52.760;6.726;2022-10-10T07:34:31;9.10;99.90
59007;DHT22;44792;52.760;6.726;2022-10-10T07:36:56;9.20;99.90
59007;DHT22;44792;52.760;6.726;2022-10-10T07:39:23;9.20;99.90
59007;DHT22;44792;52.760;6.726;2022-10-10T07:41:49;9.30;99.90
59007;DHT22;44792;52.760;6.726;2022-10-10T07:44:16;9.30;99.90
59007;DHT22;44792;52.760;6.726;2022-10-10T07:46:42;9.30;99.90
59007;DHT22;44792;52.760;6.726;2022-10-10T07:49:08;9.40;99.90
59007;DHT22;44792;52.760;6.726;2022-10-10T07:51:34;9.40;99.90
59007;DHT22;44792;52.760;6.726;2022-10-10T07:53:59;9.40;99.90
59007;DHT22;44792;52.760;6.726;2022-10-10T07:56:25;9.50;99.90
59007;DHT22;44792;52.760;6.726;2022-10-10T07:58:51;9.50;99.90
59007;DHT22;44792;52.760;6.726;2022-10-10T08:01:17;9.50;99.90
59007;DHT22;44792;52.760;6.726;2022-10-10T08:03:44;9.60;99.90
59007;DHT22;44792;52.760;6.726;2022-10-10T08:06:12;9.60;99.90
59007;DHT22;44792;52.760;6.726;2022-10-10T08:08:39;9.70;99.90
59007;DHT22;44792;52.760;6.726;2022-10-10T08:11:07;9.70;99.90
59007;DHT22;44792;52.760;6.726;2022-10-10T08:13:33;9.80;99.90
59007;DHT22;44792;52.760;6.726;2022-10-10T08:15:59;9.80;99.90
59007;DHT22;44792;52.760;6.726;2022-10-10T08:18:25;9.80;99.90
59007;DHT22;44792;52.760;6.726;2022-10-10T08:21:02;9.90;99.90
59007;DHT22;44792;52.760;6.726;2022-10-10T08:23:27;10.00;99.90
59007;DHT22;44792;52.760;6.726;2022-10-10T08:25:53;10.00;99.90
59007;DHT22;44792;52.760;6.726;2022-10-10T08:28:22;10.10;99.90
59007;DHT22;44792;52.760;6.726;2022-10-10T08:30:48;10.10;99.90
59007;DHT22;44792;52.760;6.726;2022-10-10T08:33:13;10.10;99.90
59007;DHT22;44792;52.760;6.726;2022-10-10T08:35:39;10.20;99.90
59007;DHT22;44792;52.760;6.726;2022-10-10T08:38:05;10.20;99.90
59007;DHT22;44792;52.760;6.726;2022-10-10T08:40:31;10.30;99.90
59007;DHT22;44792;52.760;6.726;2022-10-10T08:43:02;10.30;99.90
59007;DHT22;44792;52.760;6.726;2022-10-10T08:45:31;10.30;99.90
59007;DHT22;44792;52.760;6.726;2022-10-10T08:48:00;10.40;99.90
59007;DHT22;44792;52.760;6.726;2022-10-10T08:53:12;10.50;99.90
59007;DHT22;44792;52.760;6.726;2022-10-10T08:55:41;10.60;99.90
59007;DHT22;44792;52.760;6.726;2022-10-10T08:58:13;10.60;99.90
59007;DHT22;44792;52.760;6.726;2022-10-10T09:01:34;10.60;99.90
59007;DHT22;44792;52.760;6.726;2022-10-10T09:09:43;10.70;99.90
59007;DHT22;44792;52.760;6.726;2022-10-10T09:12:20;10.80;99.90
59007;DHT22;44792;52.760;6.726;2022-10-10T09:20:47;10.90;99.90
59007;DHT22;44792;52.760;6.726;2022-10-10T09:23:24;10.90;99.90
59007;DHT22;44792;52.760;6.726;2022-10-10T09:26:06;11.00;99.90
59007;DHT22;44792;52.760;6.726;2022-10-10T09:31:23;11.20;99.90
59007;DHT22;44792;52.760;6.726;2022-10-10T09:33:54;11.20;99.90
59007;DHT22;44792;52.760;6.726;2022-10-10T09:36:24;11.40;99.90
59007;DHT22;44792;52.760;6.726;2022-10-10T09:38:59;11.60;99.90
59007;DHT22;44792;52.760;6.726;2022-10-10T09:41:41;11.60;99.90
59007;DHT22;44792;52.760;6.726;2022-10-10T09:44:10;11.60;99.90
59007;DHT22;44792;52.760;6.726;2022-10-10T09:46:37;11.70;99.90
59007;DHT22;44792;52.760;6.726;2022-10-10T09:49:03;11.70;99.90
59007;DHT22;44792;52.760;6.726;2022-10-10T09:51:30;11.80;99.90
59007;DHT22;44792;52.760;6.726;2022-10-10T09:53:56;12.00;99.90
59007;DHT22;44792;52.760;6.726;2022-10-10T09:56:44;12.10;99.90
59007;DHT22;44792;52.760;6.726;2022-10-10T09:59:38;12.40;99.90
59007;DHT22;44792;52.760;6.726;2022-10-10T10:02:17;12.60;99.90
59007;DHT22;44792;52.760;6.726;2022-10-10T10:04:43;12.60;99.90
59007;DHT22;44792;52.760;6.726;2022-10-10T10:07:21;12.70;99.90
59007;DHT22;44792;52.760;6.726;2022-10-10T10:10:20;12.70;99.90
59007;DHT22;44792;52.760;6.726;2022-10-10T10:12:46;12.70;99.90
59007;DHT22;44792;52.760;6.726;2022-10-10T10:15:25;12.80;99.90
59007;DHT22;44792;52.760;6.726;2022-10-10T10:20:48;12.90;99.90
59007;DHT22;44792;52.760;6.726;2022-10-10T10:23:24;13.00;99.90
59007;DHT22;44792;52.760;6.726;2022-10-10T10:28:49;13.20;99.90
59007;DHT22;44792;52.760;6.726;2022-10-10T10:31:51;13.30;99.90
59007;DHT22;44792;52.760;6.726;2022-10-10T10:37:09;13.30;99.90
59007;DHT22;44792;52.760;6.726;2022-10-10T10:45:37;13.30;99.90
59007;DHT22;44792;52.760;6.726;2022-10-10T10:48:26;13.30;99.90
59007;DHT22;44792;52.760;6.726;2022-10-10T10:50:58;13.50;99.90
59007;DHT22;44792;52.760;6.726;2022-10-10T10:59:12;13.70;99.90
59007;DHT22;44792;52.760;6.726;2022-10-10T11:01:54;13.80;99.90
59007;DHT22;44792;52.760;6.726;2022-10-10T11:07:19;13.70;99.90
59007;DHT22;44792;52.760;6.726;2022-10-10T11:15:22;13.80;99.90
59007;DHT22;44792;52.760;6.726;2022-10-10T11:18:12;13.90;99.90
59007;DHT22;44792;52.760;6.726;2022-10-10T11:20:48;13.80;99.90
59007;DHT22;44792;52.760;6.726;2022-10-10T11:23:20;13.90;99.90
59007;DHT22;44792;52.760;6.726;2022-10-10T11:25:53;14.00;99.90
59007;DHT22;44792;52.760;6.726;2022-10-10T11:28:38;13.90;99.90
59007;DHT22;44792;52.760;6.726;2022-10-10T11:31:10;14.00;99.90
59007;DHT22;44792;52.760;6.726;2022-10-10T11:33:47;14.10;99.90
59007;DHT22;44792;52.760;6.726;2022-10-10T11:36:18;14.10;99.90
59007;DHT22;44792;52.760;6.726;2022-10-10T11:39:00;14.10;99.90
59007;DHT22;44792;52.760;6.726;2022-10-10T11:44:02;14.20;99.90
59007;DHT22;44792;52.760;6.726;2022-10-10T11:46:42;14.20;99.90
59007;DHT22;44792;52.760;6.726;2022-10-10T11:54:37;14.30;99.90
59007;DHT22;44792;52.760;6.726;2022-10-10T11:57:11;14.30;99.90
59007;DHT22;44792;52.760;6.726;2022-10-10T12:00:08;14.30;99.90
59007;DHT22;44792;52.760;6.726;2022-10-10T12:02:35;14.30;99.90
59007;DHT22;44792;52.760;6.726;2022-10-10T12:05:03;14.20;99.90
59007;DHT22;44792;52.760;6.726;2022-10-10T12:07:35;14.20;99.90
59007;DHT22;44792;52.760;6.726;2022-10-10T12:10:18;14.10;99.90
59007;DHT22;44792;52.760;6.726;2022-10-10T12:12:47;14.10;99.90
59007;DHT22;44792;52.760;6.726;2022-10-10T12:17:52;14.10;99.90
59007;DHT22;44792;52.760;6.726;2022-10-10T12:25:44;14.00;99.90
59007;DHT22;44792;52.760;6.726;2022-10-10T12:41:53;14.20;99.90
59007;DHT22;44792;52.760;6.726;2022-10-10T12:49:51;14.20;99.90
59007;DHT22;44792;52.760;6.726;2022-10-10T12:52:32;14.20;99.90
59007;DHT22;44792;52.760;6.726;2022-10-10T12:55:08;14.20;99.90
59007;DHT22;44792;52.760;6.726;2022-10-10T12:57:42;14.20;99.90
59007;DHT22;44792;52.760;6.726;2022-10-10T13:00:23;14.20;99.90
59007;DHT22;44792;52.760;6.726;2022-10-10T13:02:56;14.20;99.90
59007;DHT22;44792;52.760;6.726;2022-10-10T13:05:33;14.20;99.90
59007;DHT22;44792;52.760;6.726;2022-10-10T13:08:04;14.20;99.90
59007;DHT22;44792;52.760;6.726;2022-10-10T13:10:31;14.20;99.90
59007;DHT22;44792;52.760;6.726;2022-10-10T13:13:13;14.20;99.90
59007;DHT22;44792;52.760;6.726;2022-10-10T13:15:53;14.10;99.90
59007;DHT22;44792;52.760;6.726;2022-10-10T13:18:52;14.10;99.90
59007;DHT22;44792;52.760;6.726;2022-10-10T13:21:31;14.10;99.90
59007;DHT22;44792;52.760;6.726;2022-10-10T13:24:03;14.00;99.90
59007;DHT22;44792;52.760;6.726;2022-10-10T13:26:35;14.00;99.90
59007;DHT22;44792;52.760;6.726;2022-10-10T13:31:46;14.00;99.90
59007;DHT22;44792;52.760;6.726;2022-10-10T13:34:16;13.90;99.90
59007;DHT22;44792;52.760;6.726;2022-10-10T13:36:43;13.90;99.90
59007;DHT22;44792;52.760;6.726;2022-10-10T13:39:14;13.90;99.90
59007;DHT22;44792;52.760;6.726;2022-10-10T13:41:43;13.90;99.90
59007;DHT22;44792;52.760;6.726;2022-10-10T13:44:13;13.90;99.90
59007;DHT22;44792;52.760;6.726;2022-10-10T13:46:38;13.80;99.90
59007;DHT22;44792;52.760;6.726;2022-10-10T13:51:45;13.80;99.90
59007;DHT22;44792;52.760;6.726;2022-10-10T13:54:34;13.80;99.90
59007;DHT22;44792;52.760;6.726;2022-10-10T13:57:05;13.80;99.90
59007;DHT22;44792;52.760;6.726;2022-10-10T13:59:35;13.80;99.90
59007;DHT22;44792;52.760;6.726;2022-10-10T14:02:02;13.80;99.90
59007;DHT22;44792;52.760;6.726;2022-10-10T14:04:38;13.80;99.90
59007;DHT22;44792;52.760;6.726;2022-10-10T14:09:43;13.80;99.90
59007;DHT22;44792;52.760;6.726;2022-10-10T14:12:20;13.80;99.90
59007;DHT22;44792;52.760;6.726;2022-10-10T14:14:49;13.80;99.90
59007;DHT22;44792;52.760;6.726;2022-10-10T14:17:16;13.80;99.90
59007;DHT22;44792;52.760;6.726;2022-10-10T14:19:43;13.80;99.90
59007;DHT22;44792;52.760;6.726;2022-10-10T14:22:09;13.80;99.90
59007;DHT22;44792;52.760;6.726;2022-10-10T14:24:35;13.80;99.90
59007;DHT22;44792;52.760;6.726;2022-10-10T14:27:13;13.80;99.90
59007;DHT22;44792;52.760;6.726;2022-10-10T14:29:40;13.70;99.90
59007;DHT22;44792;52.760;6.726;2022-10-10T14:32:05;13.70;99.90
59007;DHT22;44792;52.760;6.726;2022-10-10T14:34:31;13.70;99.90
59007;DHT22;44792;52.760;6.726;2022-10-10T14:36:56;13.70;99.90
59007;DHT22;44792;52.760;6.726;2022-10-10T14:39:22;13.70;99.90
59007;DHT22;44792;52.760;6.726;2022-10-10T14:41:47;13.60;99.90
59007;DHT22;44792;52.760;6.726;2022-10-10T14:44:13;13.50;99.90
59007;DHT22;44792;52.760;6.726;2022-10-10T14:46:39;13.50;99.90
59007;DHT22;44792;52.760;6.726;2022-10-10T14:49:06;13.40;99.90
59007;DHT22;44792;52.760;6.726;2022-10-10T14:51:32;13.30;99.90
59007;DHT22;44792;52.760;6.726;2022-10-10T14:54:03;13.30;99.90
59007;DHT22;44792;52.760;6.726;2022-10-10T14:56:30;13.30;99.90
59007;DHT22;44792;52.760;6.726;2022-10-10T14:58:55;13.20;99.90
59007;DHT22;44792;52.760;6.726;2022-10-10T15:01:21;13.20;99.90
59007;DHT22;44792;52.760;6.726;2022-10-10T15:03:47;13.00;99.90
59007;DHT22;44792;52.760;6.726;2022-10-10T15:06:12;13.00;99.90
59007;DHT22;44792;52.760;6.726;2022-10-10T15:08:38;13.00;99.90
59007;DHT22;44792;52.760;6.726;2022-10-10T15:11:03;13.00;99.90
59007;DHT22;44792;52.760;6.726;2022-10-10T15:13:29;12.90;99.90
59007;DHT22;44792;52.760;6.726;2022-10-10T15:15:54;12.90;99.90
59007;DHT22;44792;52.760;6.726;2022-10-10T15:18:20;12.90;99.90
59007;DHT22;44792;52.760;6.726;2022-10-10T15:20:45;12.90;99.90
59007;DHT22;44792;52.760;6.726;2022-10-10T15:23:11;12.80;99.90
59007;DHT22;44792;52.760;6.726;2022-10-10T15:25:41;12.90;99.90
59007;DHT22;44792;52.760;6.726;2022-10-10T15:28:07;12.80;99.90
59007;DHT22;44792;52.760;6.726;2022-10-10T15:30:33;12.80;99.90
59007;DHT22;44792;52.760;6.726;2022-10-10T15:32:59;12.90;99.90
59007;DHT22;44792;52.760;6.726;2022-10-10T15:35:25;12.90;99.90
59007;DHT22;44792;52.760;6.726;2022-10-10T15:37:50;12.80;99.90
59007;DHT22;44792;52.760;6.726;2022-10-10T15:40:19;12.80;99.90
59007;DHT22;44792;52.760;6.726;2022-10-10T15:42:46;12.90;99.90
59007;DHT22;44792;52.760;6.726;2022-10-10T15:45:12;12.90;99.90
59007;DHT22;44792;52.760;6.726;2022-10-10T15:47:38;12.90;99.90
59007;DHT22;44792;52.760;6.726;2022-10-10T15:50:06;12.90;99.90
59007;DHT22;44792;52.760;6.726;2022-10-10T15:52:32;12.90;99.90
59007;DHT22;44792;52.760;6.726;2022-10-10T15:54:58;12.80;99.90
59007;DHT22;44792;52.760;6.726;2022-10-10T15:57:23;12.80;99.90
59007;DHT22;44792;52.760;6.726;2022-10-10T15:59:49;12.80;99.90
59007;DHT22;44792;52.760;6.726;2022-10-10T16:02:15;12.80;99.90
59007;DHT22;44792;52.760;6.726;2022-10-10T16:04:40;12.80;99.90
59007;DHT22;44792;52.760;6.726;2022-10-10T16:07:06;12.80;99.90
59007;DHT22;44792;52.760;6.726;2022-10-10T16:09:32;12.80;99.90
59007;DHT22;44792;52.760;6.726;2022-10-10T16:11:59;12.80;99.90
59007;DHT22;44792;52.760;6.726;2022-10-10T16:14:25;12.70;99.90
59007;DHT22;44792;52.760;6.726;2022-10-10T16:16:50;12.70;99.90
59007;DHT22;44792;52.760;6.726;2022-10-10T16:19:16;12.70;99.90
59007;DHT22;44792;52.760;6.726;2022-10-10T16:21:41;12.70;99.90
59007;DHT22;44792;52.760;6.726;2022-10-10T16:24:08;12.60;99.90
59007;DHT22;44792;52.760;6.726;2022-10-10T16:26:33;12.60;99.90
59007;DHT22;44792;52.760;6.726;2022-10-10T16:29:01;12.50;99.90
59007;DHT22;44792;52.760;6.726;2022-10-10T16:31:28;12.50;99.90
59007;DHT22;44792;52.760;6.726;2022-10-10T16:33:55;12.40;99.90
59007;DHT22;44792;52.760;6.726;2022-10-10T16:36:26;12.40;99.90
59007;DHT22;44792;52.760;6.726;2022-10-10T16:38:53;12.40;99.90
59007;DHT22;44792;52.760;6.726;2022-10-10T16:41:19;12.40;99.90
59007;DHT22;44792;52.760;6.726;2022-10-10T16:43:46;12.30;99.90
59007;DHT22;44792;52.760;6.726;2022-10-10T16:46:14;12.30;99.90
59007;DHT22;44792;52.760;6.726;2022-10-10T16:48:41;12.20;99.90
59007;DHT22;44792;52.760;6.726;2022-10-10T16:51:27;12.10;99.90
59007;DHT22;44792;52.760;6.726;2022-10-10T16:53:54;12.10;99.90
59007;DHT22;44792;52.760;6.726;2022-10-10T16:56:21;12.00;99.90
59007;DHT22;44792;52.760;6.726;2022-10-10T16:58:47;12.00;99.90
59007;DHT22;44792;52.760;6.726;2022-10-10T17:01:17;12.00;99.90
59007;DHT22;44792;52.760;6.726;2022-10-10T17:03:43;11.90;99.90
59007;DHT22;44792;52.760;6.726;2022-10-10T17:06:11;11.90;99.90
59007;DHT22;44792;52.760;6.726;2022-10-10T17:08:37;11.80;99.90
59007;DHT22;44792;52.760;6.726;2022-10-10T17:11:03;11.70;99.90
59007;DHT22;44792;52.760;6.726;2022-10-10T17:13:29;11.70;99.90
59007;DHT22;44792;52.760;6.726;2022-10-10T17:15:55;11.70;99.90
59007;DHT22;44792;52.760;6.726;2022-10-10T17:18:21;11.70;99.90
59007;DHT22;44792;52.760;6.726;2022-10-10T17:20:47;11.60;99.90
59007;DHT22;44792;52.760;6.726;2022-10-10T17:23:13;11.60;99.90
59007;DHT22;44792;52.760;6.726;2022-10-10T17:25:41;11.50;99.90
59007;DHT22;44792;52.760;6.726;2022-10-10T17:28:07;11.50;99.90
59007;DHT22;44792;52.760;6.726;2022-10-10T17:30:32;11.50;99.90
59007;DHT22;44792;52.760;6.726;2022-10-10T17:32:58;11.40;99.90
59007;DHT22;44792;52.760;6.726;2022-10-10T17:35:23;11.40;99.90
59007;DHT22;44792;52.760;6.726;2022-10-10T17:37:49;11.30;99.90
59007;DHT22;44792;52.760;6.726;2022-10-10T17:40:15;11.30;99.90